Repülésmeteorológia

METAR


Utolsó módosítás időpontja: 2020-09-19 21:20:00
728
SAHU41 HASM 192130
METAR LHSM 192115Z AUTO 31003KT 8000 NSC 11/08 Q1020

TAF


Utolsó módosítás időpontja: 2020-09-19 20:05:00
725
FCHU99 LHSM 192000
TAF LHSM 192000Z NIL